Time;durP1;ratioP1;P1;durP2;ratioP2;P2;SDS_P1;SDS_P2;PMS_P1;PMS_P2;Temp;Humidity;BMP_temperature;BMP_pressure;BME280_temperature;BME280_humidity;BME280_pressure;Samples;Min_cycle;Max_cycle;Signal;HPM_P1;HPM_P2
2022/07/11 00:00:12;;;;;;;1.15;1.15;;;;;;;29.25;33.00;99252.19;1839353;77;28411;-55
2022/07/11 00:03:01;;;;;;;1.30;1.30;;;;;;;29.20;33.06;99250.82;1843825;76;28166;-51
2022/07/11 00:05:49;;;;;;;1.17;1.07;;;;;;;29.24;33.07;99249.71;1870665;76;28071;-54
2022/07/11 00:08:37;;;;;;;1.10;1.10;;;;;;;29.25;33.08;99253.56;1853839;76;33098;-52
2022/07/11 00:11:26;;;;;;;1.17;1.17;;;;;;;29.22;33.08;99261.63;1862542;76;28299;-52
2022/07/11 00:14:15;;;;;;;1.20;1.20;;;;;;;29.21;33.15;99255.80;1841836;76;28166;-54
2022/07/11 00:17:03;;;;;;;1.20;1.20;;;;;;;29.22;33.11;99258.86;1852561;76;28628;-50
2022/07/11 00:19:52;;;;;;;1.80;1.10;;;;;;;29.26;33.07;99264.09;1852003;76;28042;-55
2022/07/11 00:22:40;;;;;;;1.42;1.32;;;;;;;29.25;33.06;99261.87;1849820;76;28095;-52
2022/07/11 00:25:29;;;;;;;1.02;1.02;;;;;;;29.27;33.04;99266.56;1849698;76;28143;-54
2022/07/11 00:28:17;;;;;;;1.30;1.20;;;;;;;29.30;32.99;99263.78;1853395;76;28215;-52
2022/07/11 00:31:08;;;;;;;1.10;1.10;;;;;;;29.23;33.09;99258.56;1850651;76;38528;-52
2022/07/11 00:33:57;;;;;;;1.20;1.20;;;;;;;29.21;33.12;99259.41;1849667;76;28120;-55
2022/07/11 00:36:45;;;;;;;1.30;1.20;;;;;;;29.22;33.13;99261.63;1849810;76;28218;-56
2022/07/11 00:39:34;;;;;;;1.30;1.20;;;;;;;29.29;32.98;99259.38;1870607;76;28142;-52
2022/07/11 00:42:22;;;;;;;1.20;1.20;;;;;;;29.29;33.00;99260.18;1850044;76;28217;-52
2022/07/11 00:45:11;;;;;;;1.15;1.15;;;;;;;29.26;33.03;99261.32;1849697;76;28054;-55
2022/07/11 00:48:00;;;;;;;1.00;1.00;;;;;;;29.29;32.98;99259.38;1857186;76;28239;-52
2022/07/11 00:50:48;;;;;;;1.22;1.12;;;;;;;29.26;32.96;99262.16;1856825;74;28171;-52
2022/07/11 00:53:37;;;;;;;1.25;1.00;;;;;;;29.25;32.98;99266.56;1860500;76;28187;-52
2022/07/11 00:56:29;;;;;;;1.00;1.00;;;;;;;29.25;33.02;99269.34;1860366;76;28074;-53
2022/07/11 00:59:19;;;;;;;2.20;1.27;;;;;;;29.24;33.03;99266.31;1859427;76;30074;-55
2022/07/11 01:02:08;;;;;;;1.12;1.10;;;;;;;29.23;33.01;99264.64;1870666;76;28118;-55
2022/07/11 01:04:57;;;;;;;1.17;1.17;;;;;;;29.20;33.00;99264.66;1867806;75;28085;-50
2022/07/11 01:07:46;;;;;;;1.25;1.20;;;;;;;29.09;32.98;99260.25;1849283;76;28256;-49
2022/07/11 01:10:35;;;;;;;1.10;1.10;;;;;;;28.95;33.26;99265.28;1852298;76;28104;-53
2022/07/11 01:13:24;;;;;;;1.20;1.20;;;;;;;28.74;33.52;99259.83;1849001;76;28288;-50
2022/07/11 01:16:22;;;;;;;1.90;1.30;;;;;;;28.39;34.05;99260.41;1841461;76;28167;-52
2022/07/11 01:19:10;;;;;;;1.30;1.30;;;;;;;28.20;34.35;99260.70;1860192;76;28072;-48
2022/07/11 01:22:01;;;;;;;1.25;1.22;;;;;;;28.02;34.53;99257.41;1858448;76;28162;-50
2022/07/11 01:24:50;;;;;;;1.27;1.27;;;;;;;27.95;34.57;99258.75;1856487;76;28340;-50
2022/07/11 01:27:39;;;;;;;1.20;1.20;;;;;;;28.02;34.49;99257.41;1860376;76;28258;-51
2022/07/11 01:30:30;;;;;;;1.32;1.22;;;;;;;28.06;34.46;99254.91;1852131;75;28330;-49
2022/07/11 01:33:18;;;;;;;1.37;1.30;;;;;;;28.10;34.41;99252.44;1842831;76;28148;-50
2022/07/11 01:36:07;;;;;;;1.20;1.20;;;;;;;28.14;34.36;99257.68;1851607;76;28096;-49
2022/07/11 01:38:55;;;;;;;1.20;1.20;;;;;;;28.17;34.39;99260.70;1848811;76;28067;-50
2022/07/11 01:41:44;;;;;;;1.20;1.10;;;;;;;28.18;34.38;99259.61;1849172;76;38484;-51
2022/07/11 01:44:32;;;;;;;1.47;1.30;;;;;;;28.21;34.33;99260.45;1852829;76;28243;-49
2022/07/11 01:47:20;;;;;;;1.20;1.20;;;;;;;28.24;34.23;99264.59;1851139;76;28090;-50
2022/07/11 01:50:09;;;;;;;1.40;1.30;;;;;;;28.19;34.56;99268.19;1849454;76;28034;-50
2022/07/11 01:52:58;;;;;;;1.30;1.20;;;;;;;28.15;34.85;99272.58;1849167;76;28234;-49
2022/07/11 01:55:46;;;;;;;1.27;1.27;;;;;;;28.14;35.05;99281.16;1854550;76;28151;-51
2022/07/11 01:58:34;;;;;;;1.30;1.30;;;;;;;28.10;34.99;99282.83;1860427;76;28153;-52
2022/07/11 02:01:23;;;;;;;1.50;1.42;;;;;;;28.04;34.90;99284.74;1811451;77;28530;-51
2022/07/11 02:04:11;;;;;;;1.67;1.57;;;;;;;27.97;34.86;99283.61;1818411;77;28332;-49
2022/07/11 02:06:59;;;;;;;1.42;1.30;;;;;;;27.98;34.94;99285.83;1820556;77;28334;-49
2022/07/11 02:09:48;;;;;;;1.23;1.23;;;;;;;27.99;34.87;99283.35;1806948;79;28440;-48
2022/07/11 02:12:36;;;;;;;1.30;1.20;;;;;;;27.97;34.96;99281.39;1826776;77;28305;-48
2022/07/11 02:15:25;;;;;;;1.27;1.27;;;;;;;27.97;35.00;99282.77;1824046;77;28382;-48
2022/07/11 02:18:14;;;;;;;1.30;1.20;;;;;;;27.99;35.09;99277.83;1806898;77;28336;-48
2022/07/11 02:21:03;;;;;;;1.60;1.50;;;;;;;27.98;35.06;99276.16;1813504;77;28322;-51
2022/07/11 02:23:51;;;;;;;1.25;1.25;;;;;;;27.96;35.67;99280.55;1815706;77;28409;-49
2022/07/11 02:26:39;;;;;;;1.27;1.27;;;;;;;27.96;35.82;99285.24;1785401;80;28372;-49
2022/07/11 02:29:28;;;;;;;1.27;1.27;;;;;;;27.98;36.09;99284.45;1826655;77;28255;-49
2022/07/11 02:32:16;;;;;;;1.30;1.30;;;;;;;28.00;36.26;99283.64;1825947;77;28262;-48
2022/07/11 02:35:06;;;;;;;1.10;1.10;;;;;;;27.96;36.44;99272.27;1846727;77;28257;-47
2022/07/11 02:37:54;;;;;;;1.10;1.10;;;;;;;28.00;36.41;99280.34;1827334;75;28476;-52
2022/07/11 02:40:50;;;;;;;1.30;1.20;;;;;;;28.01;36.26;99281.98;1827893;75;28275;-53
2022/07/11 02:43:33;;;;;;;1.22;1.22;;;;;;;28.02;36.11;99276.75;1820577;77;28474;-50
2022/07/11 02:46:22;;;;;;;1.25;1.25;;;;;;;28.03;35.82;99278.38;1829291;77;28317;-50
2022/07/11 02:49:10;;;;;;;1.22;1.20;;;;;;;27.99;35.68;99273.14;1830181;77;28225;-51
2022/07/11 02:51:59;;;;;;;1.25;1.25;;;;;;;27.96;35.63;99276.95;1828875;77;28320;-51
2022/07/11 02:54:48;;;;;;;1.20;1.20;;;;;;;27.99;35.60;99276.45;1837954;77;28296;-51
2022/07/11 02:57:38;;;;;;;1.30;1.30;;;;;;;28.03;35.50;99273.41;1823554;76;28266;-48
2022/07/11 03:00:27;;;;;;;1.40;1.30;;;;;;;27.99;35.49;99273.14;1796024;77;28398;-47
2022/07/11 03:03:15;;;;;;;1.10;1.10;;;;;;;27.96;35.50;99267.30;1867326;76;28124;-49
2022/07/11 03:06:04;;;;;;;1.30;1.30;;;;;;;27.98;35.56;99270.64;1782718;79;28391;-49
2022/07/11 03:08:52;;;;;;;1.30;1.27;;;;;;;27.92;35.67;99266.20;1855631;76;28219;-49
2022/07/11 03:11:41;;;;;;;1.20;1.20;;;;;;;27.90;35.77;99273.93;1787615;79;28419;-48
2022/07/11 03:14:29;;;;;;;1.20;1.20;;;;;;;27.89;35.81;99274.48;1843653;76;28218;-48
2022/07/11 03:17:19;;;;;;;1.47;1.40;;;;;;;27.92;35.71;99278.63;1774885;80;28546;-48
2022/07/11 03:20:09;;;;;;;1.30;1.30;;;;;;;27.91;35.67;99272.84;1855616;76;28090;-48
2022/07/11 03:22:58;;;;;;;1.20;1.20;;;;;;;27.91;35.64;99274.22;1786748;79;28266;-48
2022/07/11 03:25:46;;;;;;;1.30;1.30;;;;;;;27.92;35.54;99277.24;1867697;76;34348;-50
2022/07/11 03:28:35;;;;;;;1.80;1.30;;;;;;;27.97;35.48;99276.70;1786054;79;28429;-53
2022/07/11 03:31:23;;;;;;;1.20;1.20;;;;;;;27.96;35.29;99273.66;1847249;75;28324;-48
2022/07/11 03:34:11;;;;;;;1.40;1.30;;;;;;;27.97;35.23;99278.09;1775542;77;28427;-51
2022/07/11 03:36:59;;;;;;;1.20;1.20;;;;;;;27.97;35.23;99275.88;1864146;75;28112;-48
2022/07/11 03:39:48;;;;;;;1.30;1.30;;;;;;;27.96;35.21;99271.44;1818989;77;28399;-51
2022/07/11 03:42:36;;;;;;;1.30;1.30;;;;;;;27.96;35.18;99279.17;1847616;77;28191;-53
2022/07/11 03:45:25;;;;;;;1.15;1.15;;;;;;;27.96;35.19;99276.95;1792550;79;28468;-50
2022/07/11 03:48:14;;;;;;;1.40;1.40;;;;;;;27.91;35.19;99281.12;1840151;75;28214;-48
2022/07/11 03:51:02;;;;;;;1.20;1.20;;;;;;;27.92;35.15;99286.36;1790900;79;28355;-49
2022/07/11 03:53:50;;;;;;;1.50;1.35;;;;;;;27.88;35.15;99288.56;1845262;75;28237;-49
2022/07/11 03:56:39;;;;;;;1.47;1.37;;;;;;;27.87;35.19;99281.38;1787557;79;28351;-49
2022/07/11 03:59:27;;;;;;;1.90;1.25;;;;;;;27.87;35.26;99285.52;1848547;76;28199;-50
2022/07/11 04:02:15;;;;;;;1.45;1.30;;;;;;;27.84;35.30;99290.23;1811939;77;28362;-50
2022/07/11 04:05:04;;;;;;;1.37;1.37;;;;;;;27.83;35.42;99289.94;1822383;77;28280;-48
2022/07/11 04:07:52;;;;;;;2.70;1.50;;;;;;;27.82;35.42;99290.48;1804946;79;28368;-49
2022/07/11 04:10:42;;;;;;;1.33;1.33;;;;;;;27.76;35.45;99287.45;1824848;77;28704;-50
2022/07/11 04:13:31;;;;;;;1.40;1.40;;;;;;;27.80;35.49;99295.99;1820649;77;28305;-48
2022/07/11 04:16:20;;;;;;;1.40;1.30;;;;;;;27.76;35.50;99287.45;1813433;77;28274;-49
2022/07/11 04:19:08;;;;;;;1.27;1.27;;;;;;;27.78;35.48;99294.06;1832087;77;28262;-48
2022/07/11 04:21:58;;;;;;;1.37;1.20;;;;;;;27.78;35.48;99289.92;1822907;77;28344;-49
2022/07/11 04:24:47;;;;;;;1.35;1.35;;;;;;;27.76;35.45;99294.89;1817610;77;28235;-50
2022/07/11 04:27:35;;;;;;;1.60;1.40;;;;;;;27.75;35.47;99294.63;1815053;77;28337;-47
2022/07/11 04:30:23;;;;;;;1.63;1.57;;;;;;;27.74;35.46;99295.17;1814725;77;28313;-50
2022/07/11 04:33:11;;;;;;;1.40;1.30;;;;;;;27.69;35.48;99299.84;1818772;77;28591;-47
2022/07/11 04:36:00;;;;;;;1.30;1.30;;;;;;;27.69;35.56;99306.20;1813620;77;28324;-51
2022/07/11 04:38:49;;;;;;;1.40;1.40;;;;;;;27.72;35.64;99306.20;1814981;77;28258;-48
2022/07/11 04:41:38;;;;;;;1.40;1.40;;;;;;;27.69;35.75;99309.50;1815077;77;28405;-51
2022/07/11 04:44:27;;;;;;;1.60;1.50;;;;;;;27.70;35.86;99320.84;1819786;77;28274;-48
2022/07/11 04:47:15;;;;;;;1.37;1.37;;;;;;;27.69;35.86;99324.14;1805972;77;28346;-49
2022/07/11 04:50:05;;;;;;;1.60;1.50;;;;;;;27.69;35.90;99320.55;1825338;77;28305;-50
2022/07/11 04:52:53;;;;;;;1.50;1.40;;;;;;;27.68;36.03;99331.33;1823389;77;28184;-49
2022/07/11 04:55:41;;;;;;;1.50;1.40;;;;;;;27.66;36.15;99332.95;1818208;77;28270;-46
2022/07/11 04:58:32;;;;;;;1.80;1.60;;;;;;;27.68;36.18;99334.08;1815118;77;28332;-50
2022/07/11 05:01:19;;;;;;;1.60;1.50;;;;;;;27.69;36.19;99339.32;1813800;76;28384;-53
2022/07/11 05:04:08;;;;;;;1.50;1.50;;;;;;;27.67;36.38;99339.31;1830160;77;28772;-51
2022/07/11 05:06:56;;;;;;;1.40;1.40;;;;;;;27.66;36.41;99338.47;1819539;77;28276;-51
2022/07/11 05:09:45;;;;;;;1.65;1.55;;;;;;;27.65;36.43;99344.28;1827110;77;28237;-46
2022/07/11 05:12:33;;;;;;;1.60;1.50;;;;;;;27.62;36.45;99347.03;1838241;77;28240;-51
2022/07/11 05:15:21;;;;;;;1.67;1.57;;;;;;;27.62;36.53;99349.78;1834103;77;28438;-50
2022/07/11 05:18:11;;;;;;;1.60;1.50;;;;;;;27.60;36.57;99347.85;1825574;77;28353;-49
2022/07/11 05:20:59;;;;;;;1.97;1.57;;;;;;;27.60;36.58;99347.02;1826208;77;28283;-46
2022/07/11 05:23:47;;;;;;;1.80;1.70;;;;;;;27.60;36.75;99351.16;1820305;77;28741;-49
2022/07/11 05:26:36;;;;;;;1.60;1.50;;;;;;;27.56;36.86;99343.15;1835905;77;28350;-47
2022/07/11 05:29:24;;;;;;;1.60;1.45;;;;;;;27.57;36.78;99344.25;1827107;77;28400;-47
2022/07/11 05:32:12;;;;;;;1.62;1.57;;;;;;;27.58;36.78;99350.59;1839503;77;28256;-53
2022/07/11 05:35:02;;;;;;;1.75;1.65;;;;;;;27.55;36.72;99351.13;1883724;73;28253;-53
2022/07/11 05:37:51;;;;;;;4.30;1.60;;;;;;;27.62;36.67;99353.09;1889706;74;28282;-52
2022/07/11 05:40:39;;;;;;;2.40;1.47;;;;;;;27.67;36.59;99355.87;1860069;76;28411;-48
2022/07/11 05:43:28;;;;;;;1.40;1.40;;;;;;;27.74;36.52;99352.30;1809763;77;28444;-50
2022/07/11 05:46:17;;;;;;;3.45;1.50;;;;;;;27.82;36.43;99351.21;1838547;77;28258;-65
2022/07/11 05:49:06;;;;;;;2.45;1.55;;;;;;;27.88;36.40;99346.55;1889373;74;28168;-50
2022/07/11 05:51:54;;;;;;;1.20;1.20;;;;;;;27.94;36.38;99356.48;1886358;74;28143;-53
2022/07/11 05:54:43;;;;;;;1.45;1.40;;;;;;;27.93;36.38;99358.44;1847995;76;28355;-50
2022/07/11 05:57:31;;;;;;;1.60;1.50;;;;;;;27.97;36.33;99358.70;1820660;77;28465;-49
2022/07/11 06:00:22;;;;;;;1.53;1.30;;;;;;;28.00;36.30;99359.58;1811895;76;28289;-53
2022/07/11 06:03:10;;;;;;;1.47;1.40;;;;;;;28.01;36.26;99363.44;1845609;76;28281;-52
2022/07/11 06:05:58;;;;;;;1.60;1.50;;;;;;;28.03;36.22;99370.05;1785562;79;28394;-54
2022/07/11 06:08:46;;;;;;;1.40;1.40;;;;;;;28.06;36.16;99362.61;1820798;77;28385;-52
2022/07/11 06:11:35;;;;;;;1.50;1.40;;;;;;;28.08;36.15;99366.77;1809268;78;28291;-51
2022/07/11 06:14:24;;;;;;;1.50;1.40;;;;;;;28.08;36.05;99364.00;1809495;78;28273;-53
2022/07/11 06:17:13;;;;;;;1.50;1.40;;;;;;;28.08;36.05;99364.00;1829976;78;28300;-51
2022/07/11 06:20:01;;;;;;;2.00;1.50;;;;;;;28.15;36.10;99372.02;1815917;78;39276;-51
2022/07/11 06:22:49;;;;;;;1.60;1.30;;;;;;;28.17;36.09;99367.62;1848534;76;28057;-53
2022/07/11 06:25:38;;;;;;;1.22;1.22;;;;;;;28.21;36.04;99367.34;1849625;76;28248;-52
2022/07/11 06:28:26;;;;;;;1.50;1.40;;;;;;;28.22;36.03;99367.05;1852156;76;28121;-52
2022/07/11 06:31:16;;;;;;;1.20;1.20;;;;;;;28.24;35.98;99364.03;1852833;76;28067;-52
2022/07/11 06:34:04;;;;;;;1.30;1.20;;;;;;;28.24;35.93;99362.08;1863597;76;28202;-52
2022/07/11 06:36:53;;;;;;;1.60;1.50;;;;;;;28.25;35.92;99360.15;1860457;76;28119;-51
2022/07/11 06:39:41;;;;;;;1.53;1.43;;;;;;;28.26;35.86;99364.04;1857184;76;28048;-52
2022/07/11 06:42:30;;;;;;;1.30;1.30;;;;;;;28.28;35.86;99368.73;1851040;76;28038;-53
2022/07/11 06:45:18;;;;;;;1.37;1.30;;;;;;;28.30;35.81;99363.76;1850018;76;28111;-50
2022/07/11 06:48:07;;;;;;;1.30;1.30;;;;;;;28.32;35.77;99365.69;1871172;76;28075;-52
2022/07/11 06:50:55;;;;;;;1.50;1.40;;;;;;;28.32;35.76;99361.55;1855486;76;28153;-50
2022/07/11 06:53:44;;;;;;;1.77;1.35;;;;;;;28.33;35.71;99365.98;1860608;76;28124;-55
2022/07/11 06:56:33;;;;;;;1.60;1.50;;;;;;;28.35;35.71;99368.45;1844694;76;28102;-48
2022/07/11 06:59:20;;;;;;;1.40;1.40;;;;;;;28.35;35.70;99361.55;1871073;76;28111;-53
2022/07/11 07:02:09;;;;;;;1.40;1.30;;;;;;;28.35;35.70;99365.14;1853668;76;28031;-54
2022/07/11 07:05:01;;;;;;;1.50;1.35;;;;;;;28.37;35.71;99368.45;1841835;76;28132;-54
2022/07/11 07:07:49;;;;;;;1.40;1.40;;;;;;;28.39;35.66;99366.25;1860677;76;28167;-51
2022/07/11 07:10:38;;;;;;;1.50;1.30;;;;;;;28.39;35.67;99366.79;1858402;76;28114;-52
2022/07/11 07:13:28;;;;;;;1.40;1.30;;;;;;;28.39;35.66;99367.63;1853071;76;28052;-53
2022/07/11 07:16:16;;;;;;;1.27;1.22;;;;;;;28.41;35.62;99363.20;1842191;76;28159;-50
2022/07/11 07:19:04;;;;;;;1.32;1.22;;;;;;;28.41;35.59;99367.34;1863128;76;28082;-52
2022/07/11 07:21:53;;;;;;;1.30;1.20;;;;;;;28.43;35.61;99366.50;1853059;76;28163;-52
2022/07/11 07:24:42;;;;;;;1.15;1.15;;;;;;;28.43;35.58;99370.11;1839815;77;28242;-51
2022/07/11 07:27:32;;;;;;;1.20;1.20;;;;;;;28.45;35.53;99367.09;1861061;76;28143;-51
2022/07/11 07:30:20;;;;;;;1.17;1.17;;;;;;;28.46;35.54;99368.18;1861160;75;28105;-51
2022/07/11 07:33:09;;;;;;;1.10;1.10;;;;;;;28.45;35.50;99366.51;1839950;77;28239;-48
2022/07/11 07:35:57;;;;;;;1.10;1.10;;;;;;;28.46;35.50;99357.12;1839929;77;28094;-52
2022/07/11 07:38:49;;;;;;;1.20;1.20;;;;;;;28.48;35.50;99360.98;1860606;76;28120;-54
2022/07/11 07:41:38;;;;;;;1.50;1.40;;;;;;;28.48;35.49;99360.44;1860787;76;28043;-53
2022/07/11 07:44:26;;;;;;;1.25;1.25;;;;;;;28.51;35.47;99358.52;1839047;77;28581;-52
2022/07/11 07:47:15;;;;;;;1.20;1.20;;;;;;;28.53;35.46;99360.44;1850518;76;28761;-53
2022/07/11 07:50:05;;;;;;;1.40;1.30;;;;;;;28.58;35.41;99357.68;1849251;76;28152;-54
2022/07/11 07:52:54;;;;;;;1.22;1.12;;;;;;;28.51;35.42;99337.78;1870126;76;28190;-50
2022/07/11 07:55:42;;;;;;;1.92;1.20;;;;;;;28.58;35.36;99346.63;1854710;76;28157;-53
2022/07/11 07:58:30;;;;;;;1.10;1.10;;;;;;;28.58;35.35;99346.63;1839403;76;28209;-50
2022/07/11 08:01:34;;;;;;;1.00;1.00;;;;;;;28.58;35.40;99349.39;1861111;76;28310;-49
2022/07/11 08:04:23;;;;;;;1.25;1.15;;;;;;;28.59;35.37;99339.20;1845466;76;39062;-53
2022/07/11 08:07:11;;;;;;;1.22;1.20;;;;;;;28.62;35.40;99340.00;1853776;76;28162;-52
2022/07/11 08:10:00;;;;;;;1.20;1.20;;;;;;;28.59;35.46;99335.86;1849738;76;28155;-54
2022/07/11 08:12:48;;;;;;;1.10;1.10;;;;;;;28.64;35.44;99339.17;1850037;76;28129;-52
2022/07/11 08:15:37;;;;;;;1.30;1.30;;;;;;;28.63;35.49;99338.36;1850281;76;28586;-53
2022/07/11 08:18:26;;;;;;;1.20;1.20;;;;;;;28.66;35.48;99330.87;1839708;77;28168;-51
2022/07/11 08:21:15;;;;;;;1.20;1.20;;;;;;;28.67;35.52;99326.19;1860862;76;28167;-53
2022/07/11 08:24:05;;;;;;;1.37;1.27;;;;;;;28.71;35.46;99327.27;1843737;76;28144;-50
2022/07/11 08:26:54;;;;;;;1.37;1.20;;;;;;;28.75;35.51;99314.58;1851375;76;28128;-51
2022/07/11 08:29:42;;;;;;;1.10;1.10;;;;;;;28.73;35.51;99316.22;1853929;76;28622;-52
2022/07/11 08:32:30;;;;;;;1.55;1.20;;;;;;;28.76;35.46;99318.98;1850228;76;28071;-51
2022/07/11 08:35:18;;;;;;;1.10;1.10;;;;;;;28.75;35.48;99314.58;1847500;76;28150;-52
2022/07/11 08:38:07;;;;;;;1.10;1.10;;;;;;;28.76;35.43;99313.45;1857632;76;28034;-52
2022/07/11 08:40:56;;;;;;;1.20;1.20;;;;;;;28.78;35.46;99310.42;1852238;76;28090;-50
2022/07/11 08:43:44;;;;;;;1.10;1.10;;;;;;;28.78;35.43;99313.19;1849896;76;28108;-54
2022/07/11 08:46:34;;;;;;;1.20;1.10;;;;;;;28.77;35.43;99303.22;1869889;76;28089;-53
2022/07/11 08:49:24;;;;;;;1.20;1.10;;;;;;;28.77;35.38;99298.53;1856207;76;28148;-51
2022/07/11 08:52:13;;;;;;;1.00;1.00;;;;;;;28.75;35.43;99294.64;1859990;76;28184;-53
2022/07/11 08:55:06;;;;;;;1.10;1.10;;;;;;;28.78;35.40;99293.84;1866689;76;28050;-52
2022/07/11 08:57:52;;;;;;;1.10;1.10;;;;;;;28.75;35.48;99291.08;1849968;76;31153;-48
2022/07/11 09:00:44;;;;;;;1.25;1.10;;;;;;;28.74;35.45;99287.47;1855269;76;30071;-52
2022/07/11 09:03:35;;;;;;;1.15;1.05;;;;;;;28.75;35.45;99284.16;1848477;76;28099;-51
2022/07/11 09:06:24;;;;;;;1.30;1.20;;;;;;;28.74;35.44;99286.09;1850180;76;28120;-51
2022/07/11 09:09:12;;;;;;;1.40;1.10;;;;;;;28.74;35.49;99286.09;1870912;76;28046;-53
2022/07/11 09:12:00;;;;;;;1.35;1.10;;;;;;;28.74;35.42;99283.87;1857346;76;31069;-51
2022/07/11 09:14:56;;;;;;;0.93;0.93;;;;;;;28.73;35.49;99281.66;1848327;76;28133;-52
2022/07/11 09:17:40;;;;;;;1.12;1.12;;;;;;;28.77;35.46;99275.03;1846022;76;28124;-50
2022/07/11 09:25:19;;;;;;;1.02;1.02;;;;;;;28.75;35.45;99271.14;1858758;76;28039;-52
2022/07/11 09:26:32;;;;;;;1.00;1.00;;;;;;;28.75;35.44;99265.61;1852919;76;28108;-53
2022/07/11 09:29:28;;;;;;;1.12;1.10;;;;;;;28.75;35.48;99268.38;1841993;76;28160;-50
2022/07/11 09:32:13;;;;;;;1.10;1.10;;;;;;;28.78;35.48;99262.05;1860814;76;28255;-50
2022/07/11 09:35:01;;;;;;;1.20;1.20;;;;;;;28.79;35.42;99262.30;1858958;76;28173;-53
2022/07/11 09:37:50;;;;;;;1.00;1.00;;;;;;;28.82;35.45;99261.74;1840135;77;28124;-54
2022/07/11 09:40:41;;;;;;;1.20;1.10;;;;;;;28.80;35.46;99256.47;1860825;76;28185;-53
2022/07/11 09:43:30;;;;;;;1.00;1.00;;;;;;;28.80;35.54;99262.58;1860852;76;28038;-53
2022/07/11 09:46:25;;;;;;;1.07;1.07;;;;;;;28.86;35.38;99254.53;1858044;76;28084;-52
2022/07/11 09:49:16;;;;;;;1.05;1.05;;;;;;;28.88;35.42;99247.61;1854072;76;38377;-53
2022/07/11 09:52:16;;;;;;;1.17;1.17;;;;;;;28.87;35.40;99245.14;1841338;76;28222;-49
2022/07/11 09:55:05;;;;;;;1.00;1.00;;;;;;;28.90;35.35;99251.47;1860779;76;28104;-50
2022/07/11 09:57:54;;;;;;;1.15;1.15;;;;;;;28.90;35.39;99248.70;1860891;76;28019;-50
2022/07/11 10:00:44;;;;;;;1.42;1.30;;;;;;;28.89;35.38;99249.83;1855283;76;28039;-53
2022/07/11 10:03:34;;;;;;;1.10;1.10;;;;;;;28.91;35.39;99243.46;1850139;76;28045;-54
2022/07/11 10:06:23;;;;;;;1.07;1.07;;;;;;;28.96;35.31;99242.06;1850169;76;28179;-54
2022/07/11 10:09:12;;;;;;;1.27;1.17;;;;;;;28.95;35.36;99242.61;1852244;75;28206;-48
2022/07/11 10:12:00;;;;;;;1.10;1.10;;;;;;;28.96;35.31;99240.68;1852539;76;28094;-52
2022/07/11 10:14:50;;;;;;;1.00;1.00;;;;;;;28.97;35.31;99243.70;1849794;76;28069;-52
2022/07/11 10:18:01;;;;;;;1.60;1.02;;;;;;;28.98;35.29;99248.13;1849515;76;28203;-50
2022/07/11 10:20:58;;;;;;;1.10;1.10;;;;;;;28.99;35.32;99235.94;1842511;76;28176;-51
2022/07/11 10:23:56;;;;;;;1.00;0.90;;;;;;;28.98;35.32;99235.14;1852664;76;28230;-51
2022/07/11 10:27:05;;;;;;;1.00;1.00;;;;;;;28.96;35.33;99241.52;1839363;77;28575;-51
2022/07/11 10:29:54;;;;;;;1.00;1.00;;;;;;;28.93;35.37;99224.64;1813238;78;28217;-52
2022/07/11 10:32:59;;;;;;;1.05;1.05;;;;;;;28.92;35.42;99227.12;1823190;77;28276;-51
2022/07/11 10:35:53;;;;;;;1.02;1.02;;;;;;;28.96;35.38;99221.33;1854671;76;28234;-54
2022/07/11 10:38:44;;;;;;;1.00;1.00;;;;;;;28.94;35.35;99222.16;1860569;76;28160;-54
2022/07/11 10:41:32;;;;;;;1.12;1.12;;;;;;;28.95;35.39;99222.42;1856773;76;28145;-49
2022/07/11 10:44:22;;;;;;;1.10;1.10;;;;;;;28.95;35.36;99214.95;1851274;76;28069;-50
2022/07/11 10:47:30;;;;;;;1.07;1.07;;;;;;;28.91;35.39;99214.42;1849632;76;28100;-50
2022/07/11 10:50:24;;;;;;;1.00;1.00;;;;;;;28.92;35.34;99214.13;1862324;76;28213;-51
2022/07/11 10:53:14;;;;;;;0.90;0.90;;;;;;;28.91;35.38;99213.88;1860290;76;28555;-51
2022/07/11 10:56:31;;;;;;;0.93;0.93;;;;;;;28.92;35.37;99199.47;1855720;76;28084;-51
2022/07/11 10:59:20;;;;;;;1.07;1.07;;;;;;;28.94;35.29;99207.76;1856348;76;28071;-50
2022/07/11 11:02:12;;;;;;;1.00;1.00;;;;;;;28.91;35.38;99193.14;1851084;76;28179;-51
2022/07/11 11:05:01;;;;;;;1.02;1.02;;;;;;;28.94;35.33;99190.36;1842600;76;28345;-49
2022/07/11 11:07:50;;;;;;;0.90;0.90;;;;;;;28.96;35.29;99184.82;1861372;76;28080;-51
2022/07/11 11:10:46;;;;;;;1.00;1.00;;;;;;;29.00;35.24;99179.53;1854317;75;28147;-52
2022/07/11 11:13:36;;;;;;;0.90;0.90;;;;;;;28.98;35.28;99190.89;1851989;76;28098;-53
2022/07/11 11:16:25;;;;;;;1.10;1.00;;;;;;;28.96;35.27;99180.67;1850000;74;28462;-53
2022/07/11 11:19:49;;;;;;;0.97;0.97;;;;;;;28.97;35.32;99176.78;1849039;76;28181;-49
2022/07/11 11:22:39;;;;;;;1.02;1.00;;;;;;;28.99;35.27;99180.63;1860972;76;28176;-51
2022/07/11 11:25:29;;;;;;;1.05;1.05;;;;;;;28.97;35.31;99174.56;1858150;76;28508;-51
2022/07/11 11:28:22;;;;;;;1.60;1.00;;;;;;;28.99;34.88;99166.80;1853045;76;28101;-51
2022/07/11 11:31:10;;;;;;;0.93;0.93;;;;;;;28.99;34.88;99166.80;1849974;76;28128;-55
2022/07/11 11:34:01;;;;;;;1.02;0.93;;;;;;;29.00;35.32;99174.00;1849876;76;28148;-53
2022/07/11 11:36:58;;;;;;;0.90;0.90;;;;;;;29.01;35.26;99171.52;1853130;76;28153;-53
2022/07/11 11:39:46;;;;;;;0.80;0.80;;;;;;;29.00;35.26;99168.47;1839605;77;28180;-47
2022/07/11 11:42:35;;;;;;;0.93;0.93;;;;;;;29.02;35.32;99156.56;1848737;76;28020;-52
2022/07/11 11:45:24;;;;;;;1.40;0.90;;;;;;;29.03;35.22;99151.31;1850063;76;28134;-51
2022/07/11 11:48:15;;;;;;;0.90;0.90;;;;;;;29.01;35.23;99151.58;1852925;76;28180;-52
2022/07/11 11:51:08;;;;;;;0.90;0.90;;;;;;;29.03;35.22;99146.63;1853073;76;28115;-51
2022/07/11 11:54:05;;;;;;;2.30;1.00;;;;;;;29.02;35.25;99137.20;1841218;76;28265;-52
2022/07/11 11:56:49;;;;;;;1.15;1.00;;;;;;;29.05;35.23;99142.17;1864723;76;28597;-51
2022/07/11 11:59:41;;;;;;;0.90;0.90;;;;;;;29.04;35.23;99145.48;1852205;76;28132;-51
2022/07/11 12:02:31;;;;;;;1.00;1.00;;;;;;;29.02;35.26;99145.50;1839991;77;38442;-50
2022/07/11 12:05:20;;;;;;;0.80;0.80;;;;;;;29.02;35.32;99133.05;1850759;76;31258;-53
2022/07/11 12:08:08;;;;;;;1.00;1.00;;;;;;;29.02;35.25;99131.67;1850134;76;28030;-53
2022/07/11 12:10:57;;;;;;;0.90;0.90;;;;;;;29.03;35.28;99137.48;1850913;75;28210;-49
2022/07/11 12:13:46;;;;;;;0.90;0.90;;;;;;;29.05;35.24;99140.80;1868677;76;27998;-52
2022/07/11 12:16:44;;;;;;;0.95;0.95;;;;;;;29.05;35.31;99139.41;1850053;76;28101;-51
2022/07/11 12:19:37;;;;;;;0.90;0.90;;;;;;;29.05;35.25;99140.80;1844040;76;28097;-52
2022/07/11 12:22:28;;;;;;;0.90;0.90;;;;;;;29.03;35.26;99127.27;1862056;76;28065;-52
2022/07/11 12:25:17;;;;;;;1.00;1.00;;;;;;;29.02;35.30;99129.74;1871150;76;28033;-49
2022/07/11 12:28:07;;;;;;;1.00;1.00;;;;;;;29.07;35.30;99124.19;1851347;76;28098;-52
2022/07/11 12:31:01;;;;;;;1.03;1.03;;;;;;;29.09;35.27;99115.04;1850430;76;28063;-52
2022/07/11 12:33:53;;;;;;;0.90;0.90;;;;;;;29.10;35.26;99126.36;1868931;76;28065;-51
2022/07/11 12:36:41;;;;;;;0.88;0.88;;;;;;;29.12;35.24;99124.70;1839810;77;28180;-49
2022/07/11 12:39:33;;;;;;;1.00;1.00;;;;;;;29.10;35.19;99120.02;1852419;76;28005;-52
2022/07/11 12:42:32;;;;;;;0.95;0.95;;;;;;;29.10;35.25;99117.25;1871169;76;28093;-53
2022/07/11 12:45:21;;;;;;;0.90;0.90;;;;;;;29.12;35.18;99122.77;1850458;76;28132;-51
2022/07/11 12:48:10;;;;;;;0.93;0.93;;;;;;;29.10;35.23;99119.44;1850644;76;28234;-53
2022/07/11 12:50:59;;;;;;;0.90;0.90;;;;;;;29.10;35.26;99116.67;1839772;75;28708;-52
2022/07/11 12:53:49;;;;;;;0.85;0.85;;;;;;;29.11;35.21;99109.20;1849280;76;28011;-52
2022/07/11 12:56:39;;;;;;;0.78;0.78;;;;;;;29.09;35.26;99105.36;1849955;76;28160;-48
2022/07/11 12:59:28;;;;;;;0.78;0.78;;;;;;;29.10;35.26;99114.48;1851644;76;28586;-51
2022/07/11 13:02:17;;;;;;;0.80;0.80;;;;;;;29.13;35.24;99098.68;1840211;77;28062;-49
2022/07/11 13:05:07;;;;;;;0.80;0.80;;;;;;;29.15;35.22;99100.63;1847359;76;28008;-51
2022/07/11 13:11:03;;;;;;;0.90;0.90;;;;;;;29.15;35.16;99104.20;1849702;76;28131;-50
2022/07/11 13:13:53;;;;;;;0.90;0.90;;;;;;;29.14;35.18;99103.11;1855939;76;30043;-51
2022/07/11 13:16:41;;;;;;;0.90;0.90;;;;;;;29.11;35.27;99097.59;1859771;76;28085;-51
2022/07/11 13:19:29;;;;;;;0.80;0.80;;;;;;;29.14;35.25;99100.34;1860672;76;28118;-52
2022/07/11 13:22:18;;;;;;;0.98;0.98;;;;;;;29.13;35.21;99113.89;1859933;76;28669;-51
2022/07/11 13:25:07;;;;;;;0.90;0.90;;;;;;;29.16;35.24;99099.50;1855584;76;28151;-50